Aeroporto :
LOGIN :

Iscrizione | Disclaimer

   EN    FR    IT 

 










Sommario :    VFR   VFR Marginale   IFR   IFR Intensivo   IFR Molto Intensivo
Visibilità : 
Base nubi : 
>= 8 km
>= 3000ft
5 / 8 km
1000 / 3000 ft
1500m / 5 km
500 / 1000 ft
800 / 1500m
200 / 500 ft
< 800m
< 200 ft
Simboli :   Temporali  Nebbia  Neve Forte  Precipitazioni Forti  Vento > 20 kt
SIGMETs :   Varie  Temporali  Ghiacco  Turbolenza  Onda orograficha  Ceneri Vulcaniche






- Altitudine del aeroporto : 1 ft


EGCK - Caernarfon

ULTIMO METAR :
  • 222050Z AUTO 21014KT 9999 BKN012/// BKN025/// 15/13 Q1002

METARs OBSOLETI :
  • 222020Z AUTO 21013KT 9999 BKN012/// BKN025/// 15/14 Q1002
  • 221950Z AUTO 20014KT 9999 FEW042/// 15/13 Q1002
  • 221920Z AUTO 21016KT 9999 FEW014/// SCT024/// BKN038/// 15/13 Q1002
  • 221850Z AUTO 21017KT 9999 SCT012/// 15/13 Q1002
  • 221820Z AUTO 21014KT 9999 SCT010/// OVC021/// 15/13 Q1003

TAF TAF EGCK
Valido dal 22 a 21 ore il 23 a 06 ore UTC


221956Z 2221/2306 20015KT 9999 BKN020
TEMPO 2221/2303 6000 RA BKN008
BECMG 2223/2301 34005KT
PROB40
TEMPO 2300/2306 3000 RADZ



MetMap, La meteo Aeronautica in un colpo d'occhio ! - Copyright ORBIFLY Dicembre 2007 - Disclaimer

ORBIFLY MET'MAP TEAM :

Programmazione e sviluppo : Alexandra Zaïnal
Concezione : Baudouin d'Aumeries
Aiuto per la programmazione : Marc-Olivier Méhu
Supporto tecnico e logistico : Manuel Goepfert
Aiuto per la traduzione : Arnaldo La Scala

Contatto : metmap@orbifly.com




FONTI E CREDITI :

   NOAA